Nearby METAR Reports

 

KBJC - Broomfield/Jeffc, Colorado, USA
Distance from station: N 0mi, 0km
Updated: Thu, 18-Apr-2024 11:48am MDT
Light snow, Overcast
Light snow, Overcast
 Wind from NE
Wind: NE 7 mph , 11 km/h
Temperature: 32°F , 0°C
Wind Chill: 25°F , -4°C
Dew Point: 30°F , -1°C
Humidity: 93%
Barometer: 30.25 inHg , 1024.4 hPa
Summary: Light Snow
Clouds: Overcast
Visibility: 2 miles , 3 km
Cloud details: Overcast 400 ft
2024/04/18 17:48 KBJC 181748Z 04006KT 2SM -SN OVC004 00/M01 A3025
KEIK - Erie Muni, Colorado, USA
Distance from station: N 5mi, 9km
Updated: Thu, 18-Apr-2024 11:55am MDT
Mist, Overcast
Mist, Overcast
 Wind from ENE
Wind: ENE 3 mph , 6 km/h
Temperature: 34°F , 1°C
Dew Point: 32°F , 0°C
Humidity: 93%
Barometer: 30.25 inHg , 1024.4 hPa
Summary: Mist
Clouds: Overcast
Visibility: 4 miles , 6 km
Cloud details: Overcast 900 ft
2024/04/18 17:55 KEIK 181755Z AUTO 07003KT 4SM UP BR OVC009 01/M00 A3025 RMK AO2 CIG 006V012 OVC V BKN P0000 T00071004 $
 
KBDU - Boulder Muni, Colorado, USA
Distance from station: NW 11mi, 17km
Updated: Thu, 18-Apr-2024 11:55am MDT
Overcast
Overcast
 Wind from calm
Wind: Calm
Temperature: 32°F , 0°C
Dew Point: 32°F , 0°C
Humidity: 100%
Barometer: 30.25 inHg , 1024.4 hPa
Clouds: Overcast
Visibility: 1 1/2 miles , 2.4 km
Cloud details: Overcast 500 ft
2024/04/18 17:55 KBDU 181755Z AUTO 00000KT 1 1/2SM UP OVC005 00/00 A3025 RMK AO2 P0002
KLMO - Longmont/Vbrand, Colorado, USA
Distance from station: NNW 16mi, 27km
Updated: Thu, 18-Apr-2024 11:55am MDT
Light snow, Overcast
Light snow, Overcast
 Wind from calm
Wind: Calm
Temperature: 36°F , 2°C
Dew Point: 32°F , 0°C
Humidity: 87%
Barometer: 30.28 inHg , 1025.4 hPa
Summary: Light Snow
Clouds: Overcast
Visibility: 5 miles , 8 km
Cloud details: Partly cloudy 1300 ft
Mostly cloudy 2200 ft
Overcast 2900 ft
2024/04/18 17:55 KLMO 181755Z AUTO 00000KT 5SM -SN SCT013 BKN022 OVC029 02/00 A3028 RMK AO2 P0001 60004 T00231004 10023 20008
 
KBKF - Buckley Angb/Den, Colorado, USA
Distance from station: SE 23mi, 37km
Updated: Thu, 18-Apr-2024 11:58am MDT
Light drizzle, Mist, Overcast
Light drizzle, Mist, Overcast
 Wind from NE
Wind: NE 9 mph , 15 km/h
Temperature: 32°F , 0°C
Wind Chill: 24°F , -4°C
Dew Point: 30°F , -1°C
Humidity: 93%
Barometer: 30.22 inHg , 1023.4 hPa
Summary: Light drizzle, Mist
Clouds: Overcast
Visibility: 3 miles , 5 km
Cloud details: Mostly cloudy 600 ft
Overcast 1000 ft
2024/04/18 17:58 KBKF 181758Z 05008KT 3SM -DZ BR BKN006 OVC010 00/M01 A3022 RMK AO2A SLP250 P0000 60001 T00021009 10002 21005 58003
KDEN - Denver (dia), Colorado, USA
Distance from station: ESE 23mi, 37km
Updated: Thu, 18-Apr-2024 11:53am MDT
Light snow, Mist, Overcast
Light snow, Mist, Overcast
 Wind from ENE
Wind: ENE 12 mph , 19 km/h
Temperature: 32°F , 0°C
Wind Chill: 23°F , -5°C
Dew Point: 28°F , -2°C
Humidity: 87%
Barometer: 30.24 inHg , 1024 hPa
Summary: Light snow, Mist
Clouds: Overcast
Visibility: 2 1/2 miles , 4 km
Cloud details: Partly cloudy 700 ft
Overcast 1100 ft
2024/04/18 17:53 KDEN 181753Z 07010KT 2 1/2SM -SN BR SCT007 OVC011 00/M02 A3024 RMK AO2 VIS 2V3 DZE50SNB50 SLP246 P0001 60001 I6007 T00001017 10006 21006 58002
 
KAPA - Denver/Arapahoe, Colorado, USA
Distance from station: SSE 28mi, 46km
Updated: Thu, 18-Apr-2024 12:09pm MDT
Light drizzle, Snow, Mist, Overcast
Light drizzle, Snow, Mist, Overcast
 Wind from NNE
Wind: NNE 7 mph , 11 km/h
Temperature: 34°F , 1°C
Wind Chill: 28°F , -2°C
Dew Point: 28°F , -2°C
Humidity: 81%
Barometer: 30.22 inHg , 1023.4 hPa
Summary: Light drizzle, Snow, Mist
Clouds: Overcast
Visibility: 5 miles , 8 km
Cloud details: Mostly cloudy 900 ft
Mostly cloudy 1600 ft
Overcast 2100 ft
2024/04/18 18:09 KAPA 181809Z 03006KT 5SM -DZSN BR BKN009 BKN016 OVC021 01/M02 A3022 RMK AO2 SNB07 P0000 T00061017
KFNL - Ft Collins/Lovel, Colorado, USA
Distance from station: N 35mi, 57km
Updated: Thu, 18-Apr-2024 11:56am MDT
Light snow, Overcast
Light snow, Overcast
 Wind from E
Wind: E 7 mph , 11 km/h
Temperature: 36°F , 2°C
Wind Chill: 30°F , -1°C
Dew Point: 32°F , 0°C
Humidity: 87%
Barometer: 30.27 inHg , 1025.1 hPa
Summary: Light Snow
Clouds: Overcast
Visibility: 9 miles , 14 km
Cloud details: Overcast 2300 ft
2024/04/18 17:56 KFNL 181756Z 09006KT 9SM -SN OVC023 02/00 A3027 RMK AO2 UPB28E29RAB29E32SNE28B32 SLP260 P0000 60000 T00170000 10017 21006 58001
 
K0CO - Berthoud Pass, Colorado, USA
Distance from station: WSW 38mi, 61km
Updated: Thu, 18-Apr-2024 11:55am MDT
Overcast
Overcast
 Wind from W
Wind: W 28 mph , 44 km/h, Gust: 40 mph , 65 km/h
Temperature: 27°F , -3°C
Wind Chill: 11°F , -12°C
Dew Point: 21°F , -6°C
Humidity: 80%
Barometer: 30.17 inHg , 1021.7 hPa
Clouds: Overcast
Cloud details: Partly cloudy 1100 ft
Mostly cloudy 1900 ft
Overcast 2700 ft
2024/04/18 17:55 K0CO 181755Z AUTO 27024G35KT SCT011 BKN019 OVC027 M03/M06 A3017 RMK AO2 PWINO
KGXY - Greeley/Weld, Colorado, USA
Distance from station: NE 41mi, 66km
Updated: Thu, 18-Apr-2024 11:56am MDT
Overcast
Overcast
 Wind from E
Wind: E 9 mph , 15 km/h
Temperature: 36°F , 2°C
Wind Chill: 29°F , -2°C
Dew Point: 28°F , -2°C
Humidity: 75%
Barometer: 30.28 inHg , 1025.4 hPa
Clouds: Overcast
Visibility: 10 miles , 16 km
Cloud details: Overcast 2300 ft
2024/04/18 17:56 KGXY 181756Z 10008KT 10SM OVC023 02/M02 A3028 RMK AO2 RAB14E51 SLP277 P0000 60000 T00171022 10022 20006 58002 FZRANO